sensor_id;sensor_type;location;lat;lon;timestamp;P1;durP1;ratioP1;P2;durP2;ratioP2
16466;SDS011;8344;47.560;9.710;2023-05-29T00:01:16;0.20;;;0.20;;
16466;SDS011;8344;47.560;9.710;2023-05-29T00:03:43;0.30;;;0.30;;
16466;SDS011;8344;47.560;9.710;2023-05-29T00:06:09;0.22;;;0.22;;
16466;SDS011;8344;47.560;9.710;2023-05-29T00:08:35;0.30;;;0.30;;
16466;SDS011;8344;47.560;9.710;2023-05-29T00:11:00;0.30;;;0.30;;
16466;SDS011;8344;47.560;9.710;2023-05-29T00:13:26;0.30;;;0.30;;
16466;SDS011;8344;47.560;9.710;2023-05-29T00:15:51;0.30;;;0.30;;
16466;SDS011;8344;47.560;9.710;2023-05-29T00:18:17;0.20;;;0.20;;
16466;SDS011;8344;47.560;9.710;2023-05-29T00:20:42;0.40;;;0.40;;
16466;SDS011;8344;47.560;9.710;2023-05-29T00:23:07;0.40;;;0.40;;
16466;SDS011;8344;47.560;9.710;2023-05-29T00:25:34;0.28;;;0.28;;
16466;SDS011;8344;47.560;9.710;2023-05-29T00:28:00;0.30;;;0.30;;
16466;SDS011;8344;47.560;9.710;2023-05-29T00:30:25;0.50;;;0.50;;
16466;SDS011;8344;47.560;9.710;2023-05-29T00:32:50;0.40;;;0.40;;
16466;SDS011;8344;47.560;9.710;2023-05-29T00:35:17;0.30;;;0.30;;
16466;SDS011;8344;47.560;9.710;2023-05-29T00:37:42;0.40;;;0.40;;
16466;SDS011;8344;47.560;9.710;2023-05-29T00:40:08;0.40;;;0.40;;
16466;SDS011;8344;47.560;9.710;2023-05-29T00:42:34;0.25;;;0.25;;
16466;SDS011;8344;47.560;9.710;2023-05-29T00:44:59;0.30;;;0.30;;
16466;SDS011;8344;47.560;9.710;2023-05-29T00:47:24;0.30;;;0.30;;
16466;SDS011;8344;47.560;9.710;2023-05-29T00:49:50;0.40;;;0.40;;
16466;SDS011;8344;47.560;9.710;2023-05-29T00:52:17;0.40;;;0.40;;
16466;SDS011;8344;47.560;9.710;2023-05-29T00:54:43;0.30;;;0.30;;
16466;SDS011;8344;47.560;9.710;2023-05-29T00:57:09;0.30;;;0.30;;
16466;SDS011;8344;47.560;9.710;2023-05-29T00:59:35;0.30;;;0.30;;
16466;SDS011;8344;47.560;9.710;2023-05-29T01:02:00;0.30;;;0.30;;
16466;SDS011;8344;47.560;9.710;2023-05-29T01:04:27;0.40;;;0.40;;
16466;SDS011;8344;47.560;9.710;2023-05-29T01:06:52;0.32;;;0.32;;
16466;SDS011;8344;47.560;9.710;2023-05-29T01:09:18;0.25;;;0.25;;
16466;SDS011;8344;47.560;9.710;2023-05-29T01:11:52;0.40;;;0.40;;
16466;SDS011;8344;47.560;9.710;2023-05-29T01:14:29;0.30;;;0.30;;
16466;SDS011;8344;47.560;9.710;2023-05-29T01:17:00;0.45;;;0.45;;
16466;SDS011;8344;47.560;9.710;2023-05-29T01:28:17;0.30;;;0.30;;
16466;SDS011;8344;47.560;9.710;2023-05-29T01:30:46;0.30;;;0.30;;
16466;SDS011;8344;47.560;9.710;2023-05-29T01:33:12;0.40;;;0.40;;
16466;SDS011;8344;47.560;9.710;2023-05-29T01:35:37;0.38;;;0.38;;
16466;SDS011;8344;47.560;9.710;2023-05-29T01:38:03;0.40;;;0.40;;
16466;SDS011;8344;47.560;9.710;2023-05-29T01:40:28;0.30;;;0.30;;
16466;SDS011;8344;47.560;9.710;2023-05-29T01:42:53;0.30;;;0.30;;
16466;SDS011;8344;47.560;9.710;2023-05-29T01:45:19;0.40;;;0.40;;
16466;SDS011;8344;47.560;9.710;2023-05-29T01:47:45;0.40;;;0.40;;
16466;SDS011;8344;47.560;9.710;2023-05-29T01:50:10;0.40;;;0.40;;
16466;SDS011;8344;47.560;9.710;2023-05-29T01:52:36;0.50;;;0.50;;
16466;SDS011;8344;47.560;9.710;2023-05-29T01:55:02;0.40;;;0.40;;
16466;SDS011;8344;47.560;9.710;2023-05-29T01:57:27;0.30;;;0.30;;
16466;SDS011;8344;47.560;9.710;2023-05-29T01:59:53;0.40;;;0.40;;
16466;SDS011;8344;47.560;9.710;2023-05-29T02:02:21;0.40;;;0.40;;
16466;SDS011;8344;47.560;9.710;2023-05-29T02:04:46;0.40;;;0.40;;
16466;SDS011;8344;47.560;9.710;2023-05-29T02:07:11;0.30;;;0.30;;
16466;SDS011;8344;47.560;9.710;2023-05-29T02:09:37;0.38;;;0.38;;
16466;SDS011;8344;47.560;9.710;2023-05-29T02:12:02;0.40;;;0.40;;
16466;SDS011;8344;47.560;9.710;2023-05-29T02:14:28;0.30;;;0.30;;
16466;SDS011;8344;47.560;9.710;2023-05-29T02:16:54;0.38;;;0.38;;
16466;SDS011;8344;47.560;9.710;2023-05-29T02:19:19;0.40;;;0.40;;
16466;SDS011;8344;47.560;9.710;2023-05-29T02:21:45;0.40;;;0.40;;
16466;SDS011;8344;47.560;9.710;2023-05-29T02:24:11;0.50;;;0.50;;
16466;SDS011;8344;47.560;9.710;2023-05-29T02:26:37;0.47;;;0.47;;
16466;SDS011;8344;47.560;9.710;2023-05-29T02:29:02;0.40;;;0.40;;
16466;SDS011;8344;47.560;9.710;2023-05-29T02:31:31;0.30;;;0.30;;
16466;SDS011;8344;47.560;9.710;2023-05-29T02:33:57;0.40;;;0.40;;
16466;SDS011;8344;47.560;9.710;2023-05-29T02:36:22;0.40;;;0.40;;
16466;SDS011;8344;47.560;9.710;2023-05-29T02:38:47;0.50;;;0.50;;
16466;SDS011;8344;47.560;9.710;2023-05-29T02:41:12;0.43;;;0.43;;
16466;SDS011;8344;47.560;9.710;2023-05-29T02:43:38;0.40;;;0.40;;
16466;SDS011;8344;47.560;9.710;2023-05-29T02:46:03;0.30;;;0.30;;
16466;SDS011;8344;47.560;9.710;2023-05-29T02:48:28;0.30;;;0.30;;
16466;SDS011;8344;47.560;9.710;2023-05-29T02:50:54;0.40;;;0.40;;
16466;SDS011;8344;47.560;9.710;2023-05-29T02:53:19;0.50;;;0.50;;
16466;SDS011;8344;47.560;9.710;2023-05-29T02:55:45;0.47;;;0.47;;
16466;SDS011;8344;47.560;9.710;2023-05-29T02:58:10;0.40;;;0.40;;
16466;SDS011;8344;47.560;9.710;2023-05-29T03:00:36;0.40;;;0.40;;
16466;SDS011;8344;47.560;9.710;2023-05-29T03:03:01;0.40;;;0.40;;
16466;SDS011;8344;47.560;9.710;2023-05-29T03:05:28;0.30;;;0.30;;
16466;SDS011;8344;47.560;9.710;2023-05-29T03:07:53;0.50;;;0.50;;
16466;SDS011;8344;47.560;9.710;2023-05-29T03:10:18;0.40;;;0.40;;
16466;SDS011;8344;47.560;9.710;2023-05-29T03:12:44;0.40;;;0.40;;
16466;SDS011;8344;47.560;9.710;2023-05-29T03:15:10;0.50;;;0.50;;
16466;SDS011;8344;47.560;9.710;2023-05-29T03:17:35;0.35;;;0.35;;
16466;SDS011;8344;47.560;9.710;2023-05-29T03:20:03;0.28;;;0.28;;
16466;SDS011;8344;47.560;9.710;2023-05-29T03:22:33;0.40;;;0.40;;
16466;SDS011;8344;47.560;9.710;2023-05-29T03:25:01;0.38;;;0.38;;
16466;SDS011;8344;47.560;9.710;2023-05-29T03:27:27;0.35;;;0.35;;
16466;SDS011;8344;47.560;9.710;2023-05-29T03:29:52;0.43;;;0.43;;
16466;SDS011;8344;47.560;9.710;2023-05-29T03:32:17;0.30;;;0.30;;
16466;SDS011;8344;47.560;9.710;2023-05-29T03:34:43;0.30;;;0.30;;
16466;SDS011;8344;47.560;9.710;2023-05-29T03:37:08;0.40;;;0.40;;
16466;SDS011;8344;47.560;9.710;2023-05-29T03:39:33;0.30;;;0.30;;
16466;SDS011;8344;47.560;9.710;2023-05-29T03:41:58;0.40;;;0.40;;
16466;SDS011;8344;47.560;9.710;2023-05-29T03:44:25;0.40;;;0.40;;
16466;SDS011;8344;47.560;9.710;2023-05-29T03:46:50;0.30;;;0.30;;
16466;SDS011;8344;47.560;9.710;2023-05-29T03:49:16;0.40;;;0.40;;
16466;SDS011;8344;47.560;9.710;2023-05-29T03:51:41;0.55;;;0.55;;
16466;SDS011;8344;47.560;9.710;2023-05-29T03:54:06;0.40;;;0.40;;
16466;SDS011;8344;47.560;9.710;2023-05-29T03:56:31;0.40;;;0.40;;
16466;SDS011;8344;47.560;9.710;2023-05-29T03:58:57;0.40;;;0.40;;
16466;SDS011;8344;47.560;9.710;2023-05-29T04:01:22;0.50;;;0.50;;
16466;SDS011;8344;47.560;9.710;2023-05-29T04:03:47;0.30;;;0.30;;
16466;SDS011;8344;47.560;9.710;2023-05-29T04:06:13;0.43;;;0.43;;
16466;SDS011;8344;47.560;9.710;2023-05-29T04:08:38;0.40;;;0.40;;
16466;SDS011;8344;47.560;9.710;2023-05-29T04:11:03;0.40;;;0.40;;
16466;SDS011;8344;47.560;9.710;2023-05-29T04:13:29;0.40;;;0.40;;
16466;SDS011;8344;47.560;9.710;2023-05-29T04:15:55;0.40;;;0.40;;
16466;SDS011;8344;47.560;9.710;2023-05-29T04:18:20;0.40;;;0.40;;
16466;SDS011;8344;47.560;9.710;2023-05-29T04:20:46;0.43;;;0.43;;
16466;SDS011;8344;47.560;9.710;2023-05-29T04:23:12;0.50;;;0.50;;
16466;SDS011;8344;47.560;9.710;2023-05-29T04:25:37;0.43;;;0.43;;
16466;SDS011;8344;47.560;9.710;2023-05-29T04:28:03;0.40;;;0.40;;
16466;SDS011;8344;47.560;9.710;2023-05-29T04:30:28;0.30;;;0.30;;
16466;SDS011;8344;47.560;9.710;2023-05-29T04:32:54;0.40;;;0.40;;
16466;SDS011;8344;47.560;9.710;2023-05-29T04:35:19;0.47;;;0.47;;
16466;SDS011;8344;47.560;9.710;2023-05-29T04:37:46;0.40;;;0.40;;
16466;SDS011;8344;47.560;9.710;2023-05-29T04:40:12;0.60;;;0.60;;
16466;SDS011;8344;47.560;9.710;2023-05-29T04:42:38;0.45;;;0.45;;
16466;SDS011;8344;47.560;9.710;2023-05-29T04:45:07;0.30;;;0.30;;
16466;SDS011;8344;47.560;9.710;2023-05-29T04:47:35;0.30;;;0.30;;
16466;SDS011;8344;47.560;9.710;2023-05-29T04:50:01;0.40;;;0.40;;
16466;SDS011;8344;47.560;9.710;2023-05-29T04:52:27;0.30;;;0.30;;
16466;SDS011;8344;47.560;9.710;2023-05-29T04:54:53;0.40;;;0.40;;
16466;SDS011;8344;47.560;9.710;2023-05-29T04:57:19;0.40;;;0.40;;
16466;SDS011;8344;47.560;9.710;2023-05-29T04:59:45;0.50;;;0.50;;
16466;SDS011;8344;47.560;9.710;2023-05-29T05:02:10;0.50;;;0.50;;
16466;SDS011;8344;47.560;9.710;2023-05-29T05:04:35;0.40;;;0.40;;
16466;SDS011;8344;47.560;9.710;2023-05-29T05:07:01;0.20;;;0.20;;
16466;SDS011;8344;47.560;9.710;2023-05-29T05:09:28;0.40;;;0.40;;
16466;SDS011;8344;47.560;9.710;2023-05-29T05:11:53;0.20;;;0.20;;
16466;SDS011;8344;47.560;9.710;2023-05-29T05:14:19;0.43;;;0.43;;
16466;SDS011;8344;47.560;9.710;2023-05-29T05:16:45;0.40;;;0.40;;
16466;SDS011;8344;47.560;9.710;2023-05-29T05:19:10;0.38;;;0.38;;
16466;SDS011;8344;47.560;9.710;2023-05-29T05:21:35;0.30;;;0.30;;
16466;SDS011;8344;47.560;9.710;2023-05-29T05:24:01;0.32;;;0.32;;
16466;SDS011;8344;47.560;9.710;2023-05-29T05:26:26;0.38;;;0.38;;
16466;SDS011;8344;47.560;9.710;2023-05-29T05:28:51;0.30;;;0.30;;
16466;SDS011;8344;47.560;9.710;2023-05-29T05:31:17;0.20;;;0.20;;
16466;SDS011;8344;47.560;9.710;2023-05-29T05:33:42;0.30;;;0.30;;
16466;SDS011;8344;47.560;9.710;2023-05-29T05:36:07;0.30;;;0.30;;
16466;SDS011;8344;47.560;9.710;2023-05-29T05:38:33;0.38;;;0.38;;
16466;SDS011;8344;47.560;9.710;2023-05-29T05:40:58;0.30;;;0.30;;
16466;SDS011;8344;47.560;9.710;2023-05-29T05:43:23;0.30;;;0.30;;
16466;SDS011;8344;47.560;9.710;2023-05-29T05:45:51;0.22;;;0.22;;
16466;SDS011;8344;47.560;9.710;2023-05-29T05:48:16;0.20;;;0.20;;
16466;SDS011;8344;47.560;9.710;2023-05-29T05:50:42;0.20;;;0.20;;
16466;SDS011;8344;47.560;9.710;2023-05-29T05:53:07;0.20;;;0.20;;
16466;SDS011;8344;47.560;9.710;2023-05-29T05:55:32;0.20;;;0.20;;
16466;SDS011;8344;47.560;9.710;2023-05-29T05:57:57;0.10;;;0.10;;
16466;SDS011;8344;47.560;9.710;2023-05-29T06:00:23;0.10;;;0.10;;
16466;SDS011;8344;47.560;9.710;2023-05-29T06:02:49;0.10;;;0.10;;
16466;SDS011;8344;47.560;9.710;2023-05-29T06:05:14;0.10;;;0.10;;
16466;SDS011;8344;47.560;9.710;2023-05-29T06:07:40;0.10;;;0.10;;
16466;SDS011;8344;47.560;9.710;2023-05-29T06:10:05;0.00;;;0.00;;
16466;SDS011;8344;47.560;9.710;2023-05-29T06:12:30;0.10;;;0.10;;
16466;SDS011;8344;47.560;9.710;2023-05-29T06:14:56;0.10;;;0.10;;
16466;SDS011;8344;47.560;9.710;2023-05-29T06:17:22;0.10;;;0.10;;
16466;SDS011;8344;47.560;9.710;2023-05-29T06:19:48;0.10;;;0.10;;
16466;SDS011;8344;47.560;9.710;2023-05-29T06:22:14;0.00;;;0.00;;
16466;SDS011;8344;47.560;9.710;2023-05-29T06:24:39;0.10;;;0.10;;
16466;SDS011;8344;47.560;9.710;2023-05-29T06:27:04;0.08;;;0.08;;
16466;SDS011;8344;47.560;9.710;2023-05-29T06:29:31;0.08;;;0.08;;
16466;SDS011;8344;47.560;9.710;2023-05-29T06:31:56;0.00;;;0.00;;
16466;SDS011;8344;47.560;9.710;2023-05-29T06:34:22;0.00;;;0.00;;
16466;SDS011;8344;47.560;9.710;2023-05-29T06:36:47;0.10;;;0.10;;
16466;SDS011;8344;47.560;9.710;2023-05-29T06:39:13;0.10;;;0.10;;
16466;SDS011;8344;47.560;9.710;2023-05-29T06:41:38;0.00;;;0.00;;
16466;SDS011;8344;47.560;9.710;2023-05-29T06:44:04;0.10;;;0.10;;
16466;SDS011;8344;47.560;9.710;2023-05-29T06:46:29;0.10;;;0.10;;
16466;SDS011;8344;47.560;9.710;2023-05-29T06:48:54;0.05;;;0.05;;
16466;SDS011;8344;47.560;9.710;2023-05-29T06:51:19;0.10;;;0.10;;
16466;SDS011;8344;47.560;9.710;2023-05-29T06:53:45;0.10;;;0.10;;
16466;SDS011;8344;47.560;9.710;2023-05-29T06:56:10;0.17;;;0.17;;
16466;SDS011;8344;47.560;9.710;2023-05-29T06:58:35;0.10;;;0.10;;
16466;SDS011;8344;47.560;9.710;2023-05-29T07:01:01;0.10;;;0.10;;
16466;SDS011;8344;47.560;9.710;2023-05-29T07:03:26;0.10;;;0.10;;
16466;SDS011;8344;47.560;9.710;2023-05-29T07:05:52;0.10;;;0.10;;
16466;SDS011;8344;47.560;9.710;2023-05-29T07:08:17;0.15;;;0.15;;
16466;SDS011;8344;47.560;9.710;2023-05-29T07:10:42;0.20;;;0.20;;
16466;SDS011;8344;47.560;9.710;2023-05-29T07:13:08;0.20;;;0.20;;
16466;SDS011;8344;47.560;9.710;2023-05-29T07:15:33;0.17;;;0.17;;
16466;SDS011;8344;47.560;9.710;2023-05-29T07:17:59;0.30;;;0.30;;
16466;SDS011;8344;47.560;9.710;2023-05-29T07:20:24;0.10;;;0.10;;
16466;SDS011;8344;47.560;9.710;2023-05-29T07:22:49;0.10;;;0.10;;
16466;SDS011;8344;47.560;9.710;2023-05-29T07:25:15;0.30;;;0.30;;
16466;SDS011;8344;47.560;9.710;2023-05-29T07:27:40;0.10;;;0.10;;
16466;SDS011;8344;47.560;9.710;2023-05-29T07:30:06;0.20;;;0.20;;
16466;SDS011;8344;47.560;9.710;2023-05-29T07:32:32;0.10;;;0.10;;
16466;SDS011;8344;47.560;9.710;2023-05-29T07:34:57;0.20;;;0.20;;
16466;SDS011;8344;47.560;9.710;2023-05-29T07:37:22;0.20;;;0.20;;
16466;SDS011;8344;47.560;9.710;2023-05-29T07:39:48;0.10;;;0.10;;
16466;SDS011;8344;47.560;9.710;2023-05-29T07:42:13;0.30;;;0.30;;
16466;SDS011;8344;47.560;9.710;2023-05-29T07:44:38;0.25;;;0.25;;
16466;SDS011;8344;47.560;9.710;2023-05-29T07:47:04;0.10;;;0.10;;
16466;SDS011;8344;47.560;9.710;2023-05-29T07:49:29;0.10;;;0.10;;
16466;SDS011;8344;47.560;9.710;2023-05-29T07:51:55;0.20;;;0.20;;
16466;SDS011;8344;47.560;9.710;2023-05-29T07:54:20;0.20;;;0.20;;
16466;SDS011;8344;47.560;9.710;2023-05-29T07:56:46;0.10;;;0.10;;
16466;SDS011;8344;47.560;9.710;2023-05-29T07:59:11;0.20;;;0.20;;
16466;SDS011;8344;47.560;9.710;2023-05-29T08:01:37;0.20;;;0.20;;
16466;SDS011;8344;47.560;9.710;2023-05-29T08:04:02;0.20;;;0.20;;
16466;SDS011;8344;47.560;9.710;2023-05-29T08:06:27;0.20;;;0.20;;
16466;SDS011;8344;47.560;9.710;2023-05-29T08:08:53;0.10;;;0.10;;
16466;SDS011;8344;47.560;9.710;2023-05-29T08:11:18;0.30;;;0.30;;
16466;SDS011;8344;47.560;9.710;2023-05-29T08:13:44;0.20;;;0.20;;
16466;SDS011;8344;47.560;9.710;2023-05-29T08:16:09;0.20;;;0.20;;
16466;SDS011;8344;47.560;9.710;2023-05-29T08:18:35;0.20;;;0.20;;
16466;SDS011;8344;47.560;9.710;2023-05-29T08:21:01;0.20;;;0.20;;
16466;SDS011;8344;47.560;9.710;2023-05-29T08:23:26;0.20;;;0.20;;
16466;SDS011;8344;47.560;9.710;2023-05-29T08:25:52;0.20;;;0.20;;
16466;SDS011;8344;47.560;9.710;2023-05-29T08:28:17;0.15;;;0.15;;
16466;SDS011;8344;47.560;9.710;2023-05-29T08:30:42;0.10;;;0.10;;
16466;SDS011;8344;47.560;9.710;2023-05-29T08:33:08;0.10;;;0.10;;
16466;SDS011;8344;47.560;9.710;2023-05-29T08:35:33;0.20;;;0.20;;
16466;SDS011;8344;47.560;9.710;2023-05-29T08:37:59;0.20;;;0.20;;
16466;SDS011;8344;47.560;9.710;2023-05-29T08:40:24;0.20;;;0.20;;
16466;SDS011;8344;47.560;9.710;2023-05-29T08:42:56;0.20;;;0.20;;
16466;SDS011;8344;47.560;9.710;2023-05-29T08:45:23;0.20;;;0.20;;
16466;SDS011;8344;47.560;9.710;2023-05-29T08:47:51;0.20;;;0.20;;
16466;SDS011;8344;47.560;9.710;2023-05-29T08:50:17;0.10;;;0.10;;
16466;SDS011;8344;47.560;9.710;2023-05-29T08:52:44;0.20;;;0.20;;
16466;SDS011;8344;47.560;9.710;2023-05-29T08:55:10;0.22;;;0.22;;
16466;SDS011;8344;47.560;9.710;2023-05-29T08:57:35;0.20;;;0.20;;
16466;SDS011;8344;47.560;9.710;2023-05-29T09:00:02;0.28;;;0.28;;
16466;SDS011;8344;47.560;9.710;2023-05-29T09:02:40;0.20;;;0.20;;
16466;SDS011;8344;47.560;9.710;2023-05-29T09:05:08;0.20;;;0.20;;
16466;SDS011;8344;47.560;9.710;2023-05-29T09:07:35;0.20;;;0.20;;
16466;SDS011;8344;47.560;9.710;2023-05-29T09:10:04;0.20;;;0.20;;
16466;SDS011;8344;47.560;9.710;2023-05-29T09:12:33;0.15;;;0.15;;
16466;SDS011;8344;47.560;9.710;2023-05-29T09:14:59;0.13;;;0.13;;
16466;SDS011;8344;47.560;9.710;2023-05-29T09:17:29;0.20;;;0.20;;
16466;SDS011;8344;47.560;9.710;2023-05-29T09:19:55;0.17;;;0.17;;
16466;SDS011;8344;47.560;9.710;2023-05-29T09:22:21;0.10;;;0.10;;
16466;SDS011;8344;47.560;9.710;2023-05-29T09:24:46;0.20;;;0.20;;
16466;SDS011;8344;47.560;9.710;2023-05-29T09:27:12;0.20;;;0.20;;
16466;SDS011;8344;47.560;9.710;2023-05-29T09:29:38;0.10;;;0.10;;
16466;SDS011;8344;47.560;9.710;2023-05-29T09:32:06;0.20;;;0.20;;
16466;SDS011;8344;47.560;9.710;2023-05-29T09:34:36;0.20;;;0.20;;
16466;SDS011;8344;47.560;9.710;2023-05-29T09:37:02;0.20;;;0.20;;
16466;SDS011;8344;47.560;9.710;2023-05-29T09:42:08;0.20;;;0.20;;
16466;SDS011;8344;47.560;9.710;2023-05-29T09:44:34;0.20;;;0.20;;
16466;SDS011;8344;47.560;9.710;2023-05-29T09:47:00;0.10;;;0.10;;
16466;SDS011;8344;47.560;9.710;2023-05-29T09:49:25;0.10;;;0.10;;
16466;SDS011;8344;47.560;9.710;2023-05-29T09:51:55;0.20;;;0.20;;
16466;SDS011;8344;47.560;9.710;2023-05-29T09:54:21;0.20;;;0.20;;
16466;SDS011;8344;47.560;9.710;2023-05-29T09:56:46;0.17;;;0.17;;
16466;SDS011;8344;47.560;9.710;2023-05-29T09:59:13;0.10;;;0.10;;
16466;SDS011;8344;47.560;9.710;2023-05-29T10:01:43;0.15;;;0.15;;
16466;SDS011;8344;47.560;9.710;2023-05-29T10:04:09;0.10;;;0.10;;
16466;SDS011;8344;47.560;9.710;2023-05-29T10:06:41;0.10;;;0.10;;
16466;SDS011;8344;47.560;9.710;2023-05-29T10:09:11;0.10;;;0.10;;
16466;SDS011;8344;47.560;9.710;2023-05-29T10:11:38;0.10;;;0.10;;
16466;SDS011;8344;47.560;9.710;2023-05-29T10:14:06;0.10;;;0.10;;
16466;SDS011;8344;47.560;9.710;2023-05-29T10:16:35;0.20;;;0.20;;
16466;SDS011;8344;47.560;9.710;2023-05-29T10:19:06;0.10;;;0.10;;
16466;SDS011;8344;47.560;9.710;2023-05-29T10:21:33;0.10;;;0.10;;
16466;SDS011;8344;47.560;9.710;2023-05-29T10:24:02;0.20;;;0.20;;
16466;SDS011;8344;47.560;9.710;2023-05-29T10:26:31;0.20;;;0.20;;
16466;SDS011;8344;47.560;9.710;2023-05-29T10:29:03;0.10;;;0.10;;
16466;SDS011;8344;47.560;9.710;2023-05-29T10:31:35;0.10;;;0.10;;
16466;SDS011;8344;47.560;9.710;2023-05-29T10:34:29;0.20;;;0.20;;
16466;SDS011;8344;47.560;9.710;2023-05-29T10:37:42;0.20;;;0.20;;
16466;SDS011;8344;47.560;9.710;2023-05-29T10:40:07;0.20;;;0.20;;
16466;SDS011;8344;47.560;9.710;2023-05-29T10:42:47;0.20;;;0.20;;
16466;SDS011;8344;47.560;9.710;2023-05-29T10:47:54;0.20;;;0.20;;
16466;SDS011;8344;47.560;9.710;2023-05-29T10:50:38;0.17;;;0.17;;
16466;SDS011;8344;47.560;9.710;2023-05-29T10:53:15;0.20;;;0.20;;
16466;SDS011;8344;47.560;9.710;2023-05-29T10:55:42;0.20;;;0.20;;
16466;SDS011;8344;47.560;9.710;2023-05-29T10:58:12;0.10;;;0.10;;
16466;SDS011;8344;47.560;9.710;2023-05-29T11:00:41;0.20;;;0.20;;
16466;SDS011;8344;47.560;9.710;2023-05-29T11:03:07;0.10;;;0.10;;
16466;SDS011;8344;47.560;9.710;2023-05-29T11:05:33;0.10;;;0.10;;
16466;SDS011;8344;47.560;9.710;2023-05-29T11:07:59;0.10;;;0.10;;
16466;SDS011;8344;47.560;9.710;2023-05-29T11:10:43;0.10;;;0.10;;
16466;SDS011;8344;47.560;9.710;2023-05-29T11:13:09;0.10;;;0.10;;
16466;SDS011;8344;47.560;9.710;2023-05-29T11:15:36;0.10;;;0.10;;
16466;SDS011;8344;47.560;9.710;2023-05-29T11:18:08;0.10;;;0.10;;
16466;SDS011;8344;47.560;9.710;2023-05-29T11:23:07;0.20;;;0.20;;
16466;SDS011;8344;47.560;9.710;2023-05-29T11:25:36;0.15;;;0.15;;
16466;SDS011;8344;47.560;9.710;2023-05-29T11:28:05;0.15;;;0.15;;
16466;SDS011;8344;47.560;9.710;2023-05-29T11:30:47;0.17;;;0.17;;
16466;SDS011;8344;47.560;9.710;2023-05-29T11:33:19;0.10;;;0.10;;
16466;SDS011;8344;47.560;9.710;2023-05-29T11:35:50;0.17;;;0.17;;
16466;SDS011;8344;47.560;9.710;2023-05-29T11:38:20;0.10;;;0.10;;
16466;SDS011;8344;47.560;9.710;2023-05-29T11:40:45;0.10;;;0.10;;
16466;SDS011;8344;47.560;9.710;2023-05-29T11:43:12;0.10;;;0.10;;
16466;SDS011;8344;47.560;9.710;2023-05-29T11:45:37;0.13;;;0.13;;
16466;SDS011;8344;47.560;9.710;2023-05-29T11:48:03;0.10;;;0.10;;
16466;SDS011;8344;47.560;9.710;2023-05-29T11:50:29;0.10;;;0.10;;
16466;SDS011;8344;47.560;9.710;2023-05-29T11:52:56;0.10;;;0.10;;
16466;SDS011;8344;47.560;9.710;2023-05-29T11:55:22;0.10;;;0.10;;
16466;SDS011;8344;47.560;9.710;2023-05-29T11:57:50;0.10;;;0.10;;
16466;SDS011;8344;47.560;9.710;2023-05-29T12:00:16;0.10;;;0.10;;
16466;SDS011;8344;47.560;9.710;2023-05-29T12:02:44;0.13;;;0.13;;
16466;SDS011;8344;47.560;9.710;2023-05-29T12:05:12;0.10;;;0.10;;
16466;SDS011;8344;47.560;9.710;2023-05-29T12:07:46;0.10;;;0.10;;
16466;SDS011;8344;47.560;9.710;2023-05-29T12:10:12;0.10;;;0.10;;
16466;SDS011;8344;47.560;9.710;2023-05-29T12:12:39;0.10;;;0.10;;
16466;SDS011;8344;47.560;9.710;2023-05-29T12:15:05;0.17;;;0.17;;
16466;SDS011;8344;47.560;9.710;2023-05-29T12:17:32;0.10;;;0.10;;
16466;SDS011;8344;47.560;9.710;2023-05-29T12:19:57;0.10;;;0.10;;
16466;SDS011;8344;47.560;9.710;2023-05-29T12:22:36;0.10;;;0.10;;
16466;SDS011;8344;47.560;9.710;2023-05-29T12:25:06;0.10;;;0.10;;
16466;SDS011;8344;47.560;9.710;2023-05-29T12:27:33;0.10;;;0.10;;
16466;SDS011;8344;47.560;9.710;2023-05-29T12:30:03;0.13;;;0.13;;
16466;SDS011;8344;47.560;9.710;2023-05-29T12:32:39;0.10;;;0.10;;
16466;SDS011;8344;47.560;9.710;2023-05-29T12:35:13;0.20;;;0.20;;
16466;SDS011;8344;47.560;9.710;2023-05-29T12:37:45;0.10;;;0.10;;
16466;SDS011;8344;47.560;9.710;2023-05-29T12:40:15;0.10;;;0.10;;
16466;SDS011;8344;47.560;9.710;2023-05-29T12:42:41;0.20;;;0.20;;
16466;SDS011;8344;47.560;9.710;2023-05-29T12:45:07;0.10;;;0.10;;
16466;SDS011;8344;47.560;9.710;2023-05-29T12:47:33;0.10;;;0.10;;
16466;SDS011;8344;47.560;9.710;2023-05-29T12:49:59;0.10;;;0.10;;
16466;SDS011;8344;47.560;9.710;2023-05-29T12:52:24;0.10;;;0.10;;
16466;SDS011;8344;47.560;9.710;2023-05-29T12:54:49;0.10;;;0.10;;
16466;SDS011;8344;47.560;9.710;2023-05-29T12:57:15;0.20;;;0.20;;
16466;SDS011;8344;47.560;9.710;2023-05-29T12:59:40;0.10;;;0.10;;
16466;SDS011;8344;47.560;9.710;2023-05-29T13:02:05;0.10;;;0.10;;
16466;SDS011;8344;47.560;9.710;2023-05-29T13:04:33;0.10;;;0.10;;
16466;SDS011;8344;47.560;9.710;2023-05-29T13:06:58;0.15;;;0.15;;
16466;SDS011;8344;47.560;9.710;2023-05-29T13:09:24;0.10;;;0.10;;
16466;SDS011;8344;47.560;9.710;2023-05-29T13:11:49;0.10;;;0.10;;
16466;SDS011;8344;47.560;9.710;2023-05-29T13:14:15;0.10;;;0.10;;
16466;SDS011;8344;47.560;9.710;2023-05-29T13:16:40;0.20;;;0.20;;
16466;SDS011;8344;47.560;9.710;2023-05-29T13:19:05;0.10;;;0.10;;
16466;SDS011;8344;47.560;9.710;2023-05-29T13:21:31;0.10;;;0.10;;
16466;SDS011;8344;47.560;9.710;2023-05-29T13:23:57;0.10;;;0.10;;
16466;SDS011;8344;47.560;9.710;2023-05-29T13:26:22;0.10;;;0.10;;
16466;SDS011;8344;47.560;9.710;2023-05-29T13:28:48;0.10;;;0.10;;
16466;SDS011;8344;47.560;9.710;2023-05-29T13:31:13;0.10;;;0.10;;
16466;SDS011;8344;47.560;9.710;2023-05-29T13:33:38;0.10;;;0.10;;
16466;SDS011;8344;47.560;9.710;2023-05-29T13:36:04;0.10;;;0.10;;
16466;SDS011;8344;47.560;9.710;2023-05-29T13:38:30;0.10;;;0.10;;
16466;SDS011;8344;47.560;9.710;2023-05-29T13:40:55;0.10;;;0.10;;
16466;SDS011;8344;47.560;9.710;2023-05-29T13:43:20;0.10;;;0.10;;
16466;SDS011;8344;47.560;9.710;2023-05-29T13:45:46;0.15;;;0.15;;
16466;SDS011;8344;47.560;9.710;2023-05-29T13:48:11;0.10;;;0.10;;
16466;SDS011;8344;47.560;9.710;2023-05-29T13:50:36;0.10;;;0.10;;
16466;SDS011;8344;47.560;9.710;2023-05-29T13:53:02;0.10;;;0.10;;
16466;SDS011;8344;47.560;9.710;2023-05-29T13:55:27;0.10;;;0.10;;
16466;SDS011;8344;47.560;9.710;2023-05-29T13:57:52;0.20;;;0.20;;
16466;SDS011;8344;47.560;9.710;2023-05-29T14:00:18;0.10;;;0.10;;
16466;SDS011;8344;47.560;9.710;2023-05-29T14:02:43;0.10;;;0.10;;
16466;SDS011;8344;47.560;9.710;2023-05-29T14:05:08;0.10;;;0.10;;
16466;SDS011;8344;47.560;9.710;2023-05-29T14:07:35;0.10;;;0.10;;
16466;SDS011;8344;47.560;9.710;2023-05-29T14:10:01;0.20;;;0.20;;
16466;SDS011;8344;47.560;9.710;2023-05-29T14:12:27;0.10;;;0.10;;
16466;SDS011;8344;47.560;9.710;2023-05-29T14:14:52;0.10;;;0.10;;
16466;SDS011;8344;47.560;9.710;2023-05-29T14:17:17;0.10;;;0.10;;
16466;SDS011;8344;47.560;9.710;2023-05-29T14:19:42;0.10;;;0.10;;
16466;SDS011;8344;47.560;9.710;2023-05-29T14:22:10;0.20;;;0.20;;
16466;SDS011;8344;47.560;9.710;2023-05-29T14:24:35;0.20;;;0.20;;
16466;SDS011;8344;47.560;9.710;2023-05-29T14:27:01;0.10;;;0.10;;
16466;SDS011;8344;47.560;9.710;2023-05-29T14:29:27;0.10;;;0.10;;
16466;SDS011;8344;47.560;9.710;2023-05-29T14:31:52;0.10;;;0.10;;
16466;SDS011;8344;47.560;9.710;2023-05-29T14:34:18;0.20;;;0.20;;
16466;SDS011;8344;47.560;9.710;2023-05-29T14:36:43;0.10;;;0.10;;
16466;SDS011;8344;47.560;9.710;2023-05-29T14:39:09;0.10;;;0.10;;
16466;SDS011;8344;47.560;9.710;2023-05-29T14:41:35;0.20;;;0.20;;
16466;SDS011;8344;47.560;9.710;2023-05-29T14:44:00;0.20;;;0.20;;
16466;SDS011;8344;47.560;9.710;2023-05-29T14:46:26;0.10;;;0.10;;
16466;SDS011;8344;47.560;9.710;2023-05-29T14:48:53;0.10;;;0.10;;
16466;SDS011;8344;47.560;9.710;2023-05-29T14:51:19;0.13;;;0.13;;
16466;SDS011;8344;47.560;9.710;2023-05-29T14:53:45;0.10;;;0.10;;
16466;SDS011;8344;47.560;9.710;2023-05-29T14:56:11;0.20;;;0.20;;
16466;SDS011;8344;47.560;9.710;2023-05-29T14:58:36;0.25;;;0.25;;
16466;SDS011;8344;47.560;9.710;2023-05-29T15:01:02;0.10;;;0.10;;
16466;SDS011;8344;47.560;9.710;2023-05-29T15:03:27;0.10;;;0.10;;
16466;SDS011;8344;47.560;9.710;2023-05-29T15:05:53;0.20;;;0.20;;
16466;SDS011;8344;47.560;9.710;2023-05-29T15:08:19;0.10;;;0.10;;
16466;SDS011;8344;47.560;9.710;2023-05-29T15:10:44;0.10;;;0.10;;
16466;SDS011;8344;47.560;9.710;2023-05-29T15:13:10;0.20;;;0.20;;